Salton City, California
Current Conditions -  °F | °C
As of 6:53 PM on Friday 24 Oct 2014 (Local Time) from KPSP Reporting Station
Clear Clear  
Wind Chill: 86°   Ceiling: Unl
Heat Index: 86°   Visibility: 10mi
Dew Point: 49°   Wind: 3mph
Humidity: 28%   Direction: 40°NE
Pressure: 29.92"   Gusts: NA
Location:  33.69°N, 116.53°W
Report Text: KPSP 250153Z 04003KT 10SM CLR 30/09 A2992 RMK AO2 SLP130 T03000094
Loading
Personal Weather Stations






























Interactive Weather Map
Tropical Storm Tracking
New forecast layout! Learn more

10-Day Weather Forecast

Advertisements
Track Severe Weather on mobile